Glen, South Dakota
Current Conditions -  °F | °C
As of 1:53 PM on Friday 21 Nov 2014 (Local Time) from KABR Reporting Station
Clear Clear  
Wind Chill: 20°   Ceiling: Unl
Heat Index: 31°   Visibility: 10mi
Dew Point: 24°   Wind: 16mph
Humidity: 76%   Direction: 180°S
Pressure: 29.81"   Gusts: NA
Location:  45.4011°N, 99.3273°W
Report Text: KABR 211953Z AUTO 18014KT 10SM CLR M01/M04 A2981 RMK AO2 SLP114 T10061044
Loading
Personal Weather Stations






























Interactive Weather Map New forecast layout! Learn more

10-Day Weather Forecast

Advertisements
Track Severe Weather on mobile